| time (UTC) | temp F | wind direction | speed MPH | gust MPH | rain 1hr in | rain 24hr in | rain mn in | humidity % | barometer mb |
| 20260904165023 | 64 | 284 | 10.0 | 13.0 | 0.00 | 0.01 | 0.01 | 75 | 1013.3 |
| 20260904164020 | 64 | 279 | 8.0 | 10.0 | 0.00 | 0.01 | 0.01 | 77 | 1013.3 |
| 20260904163017 | 64 | 279 | 8.0 | 13.0 | 0.01 | 0.01 | 0.01 | 78 | 1013.4 |
| 20260904162045 | 64 | 301 | 9.0 | 13.0 | 0.01 | 0.01 | 0.01 | 80 | 1013.3 |
| 20260904161102 | 64 | 284 | 6.0 | 8.0 | 0.01 | 0.01 | 0.01 | 84 | 1013.1 |
| 20260904160038 | 63 | 271 | 4.0 | 9.0 | 0.01 | 0.01 | 0.01 | 83 | 1012.9 |
| 20260904155055 | 62 | 285 | 8.0 | 10.0 | 0.01 | 0.01 | 0.01 | 84 | 1012.7 |
| 20260904154032 | 64 | 264 | 9.0 | 13.0 | 0.01 | 0.01 | 0.01 | 83 | 1012.7 |
| 20260904153029 | 65 | 296 | 5.0 | 8.0 | 0.00 | 0.00 | 0.00 | 76 | 1012.5 |
| 20260904152026 | 65 | 310 | 12.0 | 18.0 | 0.00 | 0.00 | 0.00 | 74 | 1012.6 |
| 20260904151044 | 65 | 278 | 12.0 | 16.0 | 0.00 | 0.00 | 0.00 | 80 | 1012.4 |
| 20260904150021 | 65 | 268 | 8.0 | 11.0 | 0.00 | 0.00 | 0.00 | 83 | 1012.4 |
| 20260904145019 | 66 | 281 | 8.0 | 11.0 | 0.00 | 0.00 | 0.00 | 83 | 1012.2 |
| 20260904144016 | 65 | 278 | 7.0 | 10.0 | 0.00 | 0.00 | 0.00 | 83 | 1012.1 |
| 20260904143104 | 65 | 262 | 5.0 | 14.0 | 0.00 | 0.00 | 0.00 | 85 | 1012.3 |
| 20260904142041 | 65 | 272 | 3.0 | 8.0 | 0.00 | 0.00 | 0.00 | 86 | 1011.7 |
| 20260904141039 | 65 | 271 | 6.0 | 14.0 | 0.00 | 0.00 | 0.00 | 87 | 1011.7 |
| 20260904140037 | 65 | 258 | 4.0 | 8.0 | 0.00 | 0.00 | 0.00 | 89 | 1011.8 |
| 20260904135034 | 65 | 300 | 10.0 | 15.0 | 0.00 | 0.00 | 0.00 | 88 | 1011.4 |
| 20260904134031 | 65 | 288 | 9.0 | 11.0 | 0.00 | 0.00 | 0.00 | 90 | 1011.4 |
| 20260904133029 | 64 | 263 | 7.0 | 9.0 | 0.00 | 0.00 | 0.00 | 92 | 1011.3 |
| 20260904132026 | 64 | 263 | 6.0 | 11.0 | 0.00 | 0.00 | 0.00 | 94 | 1011.3 |
| 20260904131024 | 64 | 294 | 9.0 | 14.0 | 0.00 | 0.00 | 0.00 | 95 | 1010.8 |
| 20260904130021 | 63 | 284 | 10.0 | 13.0 | 0.00 | 0.00 | 0.00 | 96 | 1010.8 |
| 20260904125019 | 64 | 278 | 5.0 | 9.0 | 0.00 | 0.00 | 0.00 | 97 | 1010.9 |
| 20260904124016 | 64 | 238 | 9.0 | 11.0 | 0.00 | 0.00 | 0.00 | 97 | 1010.4 |
| 20260904123044 | 63 | 284 | 8.0 | 10.0 | 0.00 | 0.00 | 0.00 | 97 | 1010.6 |
| 20260904122041 | 63 | 260 | 10.0 | 21.0 | 0.00 | 0.00 | 0.00 | 98 | 1010.6 |
| 20260904121038 | 63 | 288 | 9.0 | 14.0 | 0.00 | 0.00 | 0.00 | 98 | 1010.7 |
| 20260904120036 | 63 | 246 | 5.0 | 9.0 | 0.00 | 0.00 | 0.00 | 98 | 1010.5 |
| 20260904115033 | 62 | 251 | 10.0 | 17.0 | 0.00 | 0.00 | 0.00 | 98 | 1010.2 |
| 20260904114030 | 63 | 227 | 9.0 | 14.0 | 0.00 | 0.00 | 0.00 | 98 | 1010.0 |
| 20260904113028 | 63 | 242 | 6.0 | 8.0 | 0.00 | 0.00 | 0.00 | 97 | 1010.4 |
| 20260904112025 | 63 | 250 | 4.0 | 7.0 | 0.00 | 0.00 | 0.00 | 97 | 1010.4 |
| 20260904111022 | 63 | 262 | 5.0 | 9.0 | 0.00 | 0.00 | 0.00 | 97 | 1010.5 |
| 20260904110018 | 63 | 232 | 7.0 | 10.0 | 0.00 | 0.00 | 0.00 | 97 | 1010.3 |
| 20260904105016 | 63 | 239 | 5.0 | 9.0 | 0.00 | 0.00 | 0.00 | 96 | 1010.0 |
| 20260904104043 | 63 | 220 | 6.0 | 9.0 | 0.00 | 0.00 | 0.00 | 96 | 1009.8 |
| 20260904103041 | 63 | 232 | 5.0 | 7.0 | 0.00 | 0.00 | 0.00 | 95 | 1009.9 |
| 20260904102038 | 64 | 243 | 7.0 | 9.0 | 0.00 | 0.00 | 0.00 | 94 | 1010.1 |
| 20260904101035 | 64 | 284 | 10.0 | 17.0 | 0.00 | 0.00 | 0.00 | 91 | 1010.5 |
| 20260904100053 | 65 | 269 | 8.0 | 11.0 | 0.00 | 0.00 | 0.00 | 87 | 1010.4 |
| 20260904095031 | 67 | 269 | 8.0 | 11.0 | 0.00 | 0.00 | 0.00 | 84 | 1010.2 |
| 20260904094028 | 67 | 302 | 6.0 | 9.0 | 0.00 | 0.00 | 0.00 | 83 | 1009.9 |
| 20260904093046 | 68 | 259 | 7.0 | 11.0 | 0.00 | 0.00 | 0.00 | 80 | 1009.8 |
| 20260904092023 | 68 | 304 | 8.0 | 13.0 | 0.00 | 0.00 | 0.00 | 80 | 1009.6 |
| 20260904091020 | 68 | 220 | 4.0 | 7.0 | 0.00 | 0.00 | 0.00 | 80 | 1009.5 |
| 20260904090038 | 68 | 293 | 10.0 | 14.0 | 0.00 | 0.00 | 0.00 | 84 | 1009.3 |
| 20260904085015 | 69 | 244 | 10.0 | 14.0 | 0.00 | 0.00 | 0.00 | 89 | 1009.2 |
| 20260904084043 | 71 | 183 | 19.0 | 29.0 | 0.00 | 0.00 | 0.00 | 84 | 1008.4 |
| 20260904083041 | 71 | 211 | 10.0 | 14.0 | 0.00 | 0.00 | 0.00 | 85 | 1008.6 |
| 20260904082038 | 70 | 212 | 14.0 | 30.0 | 0.00 | 0.00 | 0.00 | 85 | 1008.5 |
| 20260904081035 | 70 | 223 | 15.0 | 24.0 | 0.00 | 0.00 | 0.00 | 85 | 1008.6 |
| 20260904080033 | 70 | 318 | 10.0 | 17.0 | 0.00 | 0.00 | 0.00 | 86 | 1008.7 |
| 20260904075030 | 70 | 231 | 15.0 | 24.0 | 0.00 | 0.00 | 0.00 | 86 | 1008.2 |
| 20260904074028 | 70 | 259 | 11.0 | 15.0 | 0.00 | 0.00 | 0.00 | 85 | 1008.8 |
| 20260904073025 | 70 | 185 | 15.0 | 22.0 | 0.00 | 0.00 | 0.00 | 86 | 1009.0 |
| 20260904072043 | 70 | 265 | 15.0 | 24.0 | 0.00 | 0.00 | 0.00 | 85 | 1009.1 |
| 20260904071020 | 70 | 237 | 15.0 | 25.0 | 0.00 | 0.00 | 0.00 | 85 | 1009.2 |
| 20260904070038 | 70 | 227 | 11.0 | 19.0 | 0.00 | 0.00 | 0.00 | 85 | 1009.1 |
| 20260904065015 | 70 | 249 | 10.0 | 15.0 | 0.00 | 0.00 | 0.00 | 86 | 1009.3 |
| 20260904064043 | 69 | 240 | 11.0 | 18.0 | 0.00 | 0.00 | 0.00 | 86 | 1009.4 |
| 20260904063040 | 69 | 241 | 13.0 | 19.0 | 0.00 | 0.00 | 0.00 | 87 | 1009.6 |
| 20260904062058 | 69 | 242 | 13.0 | 22.0 | 0.00 | 0.01 | 0.00 | 86 | 1009.6 |
| 20260904061035 | 69 | 236 | 12.0 | 18.0 | 0.00 | 0.01 | 0.00 | 86 | 1009.8 |
| 20260904060033 | 69 | 262 | 11.0 | 16.0 | 0.00 | 0.01 | 0.00 | 87 | 1009.9 |
| 20260904055030 | 69 | 233 | 9.0 | 14.0 | 0.00 | 0.01 | 0.00 | 87 | 1009.9 |
| 20260904054047 | 69 | 226 | 10.0 | 15.0 | 0.00 | 0.01 | 0.00 | 87 | 1010.3 |
| 20260904053025 | 69 | 249 | 13.0 | 21.0 | 0.00 | 0.01 | 0.00 | 87 | 1010.5 |
| 20260904052022 | 68 | 239 | 9.0 | 13.0 | 0.00 | 0.02 | 0.00 | 87 | 1010.5 |
| 20260904051019 | 68 | 243 | 9.0 | 13.0 | 0.00 | 0.02 | 0.00 | 87 | 1010.7 |
| 20260904050016 | 68 | 219 | 7.0 | 9.0 | 0.00 | 0.02 | 0.00 | 88 | 1010.4 |
| 20260904045044 | 68 | 207 | 7.0 | 14.0 | 0.00 | 0.02 | 0.00 | 88 | 1010.4 |
| 20260904044041 | 68 | 227 | 6.0 | 10.0 | 0.00 | 0.02 | 0.00 | 89 | 1011.0 |
| 20260904043039 | 68 | 244 | 7.0 | 10.0 | 0.00 | 0.02 | 0.00 | 90 | 1011.1 |
| 20260904042056 | 69 | 235 | 7.0 | 13.0 | 0.00 | 0.02 | 0.00 | 89 | 1011.2 |
| 20260904041053 | 69 | 264 | 7.0 | 10.0 | 0.00 | 0.02 | 0.00 | 89 | 1011.5 |
| 20260904040031 | 69 | 221 | 7.0 | 11.0 | 0.00 | 0.02 | 0.00 | 89 | 1011.5 |
| 20260904035028 | 69 | 240 | 8.0 | 13.0 | 0.00 | 0.02 | 0.00 | 90 | 1011.9 |
| 20260904034026 | 69 | 202 | 7.0 | 8.0 | 0.00 | 0.02 | 0.00 | 90 | 1011.8 |
| 20260904033023 | 69 | 246 | 8.0 | 11.0 | 0.00 | 0.02 | 0.00 | 90 | 1011.9 |
| 20260904032021 | 69 | 241 | 9.0 | 13.0 | 0.00 | 0.02 | 0.00 | 90 | 1012.0 |
| 20260904031038 | 69 | 192 | 6.0 | 9.0 | 0.00 | 0.02 | 0.00 | 90 | 1012.2 |
| 20260904030016 | 69 | 245 | 6.0 | 9.0 | 0.00 | 0.02 | 0.00 | 90 | 1012.1 |
| 20260904025043 | 69 | 205 | 5.0 | 7.0 | 0.00 | 0.03 | 0.00 | 90 | 1012.3 |
| 20260904024041 | 69 | 241 | 8.0 | 13.0 | 0.00 | 0.03 | 0.00 | 90 | 1012.5 |
| 20260904023038 | 69 | 202 | 10.0 | 13.0 | 0.00 | 0.03 | 0.00 | 90 | 1012.6 |
| 20260904022036 | 68 | 229 | 9.0 | 13.0 | 0.00 | 0.04 | 0.00 | 91 | 1012.7 |
| 20260904021033 | 69 | 194 | 5.0 | 8.0 | 0.00 | 0.04 | 0.00 | 92 | 1012.6 |
| 20260904020051 | 68 | 228 | 8.0 | 11.0 | 0.00 | 0.04 | 0.00 | 92 | 1012.9 |
| 20260904015029 | 68 | 239 | 9.0 | 13.0 | 0.00 | 0.04 | 0.00 | 92 | 1013.1 |
| 20260904014026 | 68 | 219 | 5.0 | 8.0 | 0.00 | 0.04 | 0.00 | 92 | 1013.2 |
| 20260904013024 | 68 | 201 | 6.0 | 9.0 | 0.00 | 0.04 | 0.00 | 92 | 1013.2 |
| 20260904012021 | 68 | 213 | 6.0 | 14.0 | 0.00 | 0.04 | 0.00 | 93 | 1013.5 |
| 20260904011019 | 68 | 230 | 5.0 | 7.0 | 0.00 | 0.04 | 0.00 | 93 | 1013.5 |
| 20260904010016 | 68 | 222 | 8.0 | 11.0 | 0.00 | 0.05 | 0.00 | 93 | 1013.6 |
| 20260904005104 | 68 | 221 | 4.0 | 7.0 | 0.00 | 0.06 | 0.00 | 93 | 1013.8 |
| 20260904004042 | 68 | 215 | 8.0 | 13.0 | 0.00 | 0.08 | 0.00 | 93 | 1013.9 |
| 20260904003059 | 68 | 234 | 6.0 | 10.0 | 0.00 | 0.08 | 0.00 | 93 | 1013.8 |
| 20260904002037 | 68 | 218 | 7.0 | 10.0 | 0.00 | 0.08 | 0.00 | 92 | 1013.9 |
| 20260904001054 | 69 | 212 | 7.0 | 9.0 | 0.00 | 0.09 | 0.00 | 92 | 1014.1 |
| 20260904000031 | 69 | 221 | 7.0 | 13.0 | 0.00 | 0.09 | 0.00 | 92 | 1013.9 |
| 20260903235049 | 69 | 222 | 7.0 | 10.0 | 0.00 | 0.09 | 0.00 | 92 | 1014.2 |
| 20260903234027 | 69 | 209 | 7.0 | 10.0 | 0.00 | 0.09 | 0.00 | 92 | 1014.1 |
| 20260903233024 | 69 | 216 | 6.0 | 10.0 | 0.00 | 0.09 | 0.00 | 92 | 1014.3 |
| 20260903232022 | 68 | 227 | 7.0 | 13.0 | 0.00 | 0.09 | 0.00 | 92 | 1014.5 |
| 20260903231019 | 68 | 208 | 7.0 | 13.0 | 0.00 | 0.09 | 0.00 | 92 | 1014.5 |
| 20260903230017 | 68 | 231 | 6.0 | 10.0 | 0.00 | 0.09 | 0.00 | 92 | 1014.8 |
| 20260903225044 | 68 | 208 | 6.0 | 9.0 | 0.00 | 0.09 | 0.00 | 92 | 1015.0 |
| 20260903224042 | 68 | 200 | 5.0 | 10.0 | 0.00 | 0.09 | 0.00 | 93 | 1015.1 |
| 20260903223039 | 68 | 221 | 7.0 | 9.0 | 0.00 | 0.09 | 0.00 | 93 | 1015.2 |
| 20260903222037 | 68 | 228 | 5.0 | 8.0 | 0.00 | 0.09 | 0.00 | 93 | 1015.3 |
| 20260903221054 | 68 | 206 | 8.0 | 13.0 | 0.00 | 0.09 | 0.00 | 93 | 1015.4 |
| 20260903220032 | 68 | 201 | 6.0 | 11.0 | 0.00 | 0.10 | 0.10 | 93 | 1015.5 |
| 20260903215029 | 68 | 209 | 4.0 | 8.0 | 0.00 | 0.10 | 0.10 | 93 | 1015.7 |
| 20260903214026 | 68 | 209 | 5.0 | 7.0 | 0.00 | 0.10 | 0.10 | 94 | 1015.9 |
| 20260903213024 | 68 | 221 | 5.0 | 10.0 | 0.00 | 0.10 | 0.10 | 94 | 1015.8 |
| 20260903212041 | 68 | 210 | 6.0 | 8.0 | 0.00 | 0.10 | 0.10 | 94 | 1016.0 |
| 20260903211019 | 68 | 225 | 5.0 | 8.0 | 0.00 | 0.10 | 0.10 | 95 | 1016.0 |
| 20260903210037 | 67 | 206 | 4.0 | 7.0 | 0.00 | 0.10 | 0.10 | 95 | 1016.4 |
| 20260903205044 | 67 | 211 | 4.0 | 4.0 | 0.00 | 0.10 | 0.10 | 95 | 1016.4 |
| 20260903204101 | 67 | 189 | 3.0 | 7.0 | 0.00 | 0.10 | 0.10 | 95 | 1016.4 |
| 20260903203039 | 67 | 217 | 3.0 | 4.0 | 0.00 | 0.10 | 0.10 | 95 | 1016.6 |
| 20260903202036 | 67 | 203 | 3.0 | 6.0 | 0.00 | 0.11 | 0.10 | 95 | 1016.6 |
| 20260903201034 | 67 | 209 | 2.0 | 3.0 | 0.00 | 0.11 | 0.10 | 95 | 1016.7 |
| 20260903200031 | 67 | 212 | 3.0 | 6.0 | 0.00 | 0.11 | 0.10 | 95 | 1016.7 |
| 20260903195029 | 67 | 216 | 3.0 | 4.0 | 0.00 | 0.11 | 0.10 | 94 | 1016.6 |
| 20260903194047 | 67 | 198 | 4.0 | 8.0 | 0.00 | 0.11 | 0.10 | 94 | 1016.9 |
| 20260903193044 | 67 | 213 | 5.0 | 7.0 | 0.00 | 0.11 | 0.10 | 93 | 1017.2 |
| 20260903192022 | 67 | 208 | 3.0 | 3.0 | 0.00 | 0.11 | 0.10 | 93 | 1017.0 |
| 20260903191019 | 68 | 214 | 3.0 | 7.0 | 0.00 | 0.11 | 0.10 | 92 | 1017.1 |
| 20260903190017 | 68 | 219 | 2.0 | 3.0 | 0.00 | 0.11 | 0.10 | 92 | 1017.0 |
| 20260903185044 | 68 | 184 | 2.0 | 3.0 | 0.00 | 0.11 | 0.10 | 91 | 1016.9 |
| 20260903184042 | 67 | 203 | 4.0 | 6.0 | 0.00 | 0.11 | 0.10 | 90 | 1017.1 |
| 20260903183039 | 68 | 155 | 2.0 | 2.0 | 0.00 | 0.11 | 0.10 | 88 | 1017.0 |
| 20260903182037 | 68 | 222 | 3.0 | 4.0 | 0.00 | 0.11 | 0.10 | 86 | 1017.1 |
| 20260903181034 | 68 | 221 | 3.0 | 4.0 | 0.00 | 0.12 | 0.10 | 85 | 1017.0 |
| 20260903180032 | 68 | 244 | 3.0 | 4.0 | 0.00 | 0.13 | 0.10 | 84 | 1017.3 |
| 20260903175029 | 69 | 221 | 3.0 | 4.0 | 0.00 | 0.13 | 0.10 | 83 | 1017.3 |
| 20260903174026 | 69 | 237 | 3.0 | 4.0 | 0.00 | 0.13 | 0.10 | 83 | 1017.1 |
| 20260903173023 | 70 | 237 | 4.0 | 7.0 | 0.00 | 0.13 | 0.10 | 82 | 1017.5 |
| 20260903172021 | 70 | 273 | 3.0 | 6.0 | 0.00 | 0.13 | 0.10 | 83 | 1017.3 |
| 20260903171058 | 69 | 201 | 5.0 | 9.0 | 0.00 | 0.13 | 0.10 | 83 | 1017.2 |
| 20260903170056 | 69 | 267 | 6.0 | 9.0 | 0.00 | 0.13 | 0.10 | 83 | 1017.1 |